Poreč, Croatia

01:30 AM CET on februar 10, 2016 (GMT +0100)
Flengi | | Change Station
CLOSE
Current Station
Osebne vremenske postaje
Location: Vrsar, Croatia
Višina: 265 ft
Nearby Weather Stations

Viš 265 ft 45.16 °N, 13.66 °E | Updated 9 minutes ago

Rain
Dez
51.6 °F
Feels Like 51.6 °F
N
10.5
Veter Spremenljivo Veter od Sever

Danes
High -- | Low -- °F
--% Chance of Precip.
Yesterday
High -- | Low -- °F
Precip. -- v
Zračni tlak 29.33 v
Vidljivost 6.2 milje
Oblaki Few 3400 ft
Pretezno oblacno 4400 ft
Oblacno 5000 ft
Rosišče 49 °F
Vlažnost 91%
Padavine 0.65 v
Snow Depth Not available.
7:15 AM 5:24 PM
Naraščajoči krajec, 3% visible
METAR LJPZ 100000Z AUTO 14015KT 120V190 9999 RA FEW034/// BKN044/// OVC050/// 12/10 Q0993
Zračni tlak 29.33 v
Vidljivost 6.2 milje
Oblaki Few 3400 ft
Pretezno oblacno 4400 ft
Oblacno 5000 ft
Rosišče 49 °F
Vlažnost 91%
Padavine 0.65 v
Snow Depth Not available.
7:15 AM 5:24 PM
Naraščajoči krajec, 3% visible
METAR LJPZ 100000Z AUTO 14015KT 120V190 9999 RA FEW034/// BKN044/// OVC050/// 12/10 Q0993

10-Day Weather Forecast

Almanac

Astronomija

Feb. 10, 2016 Rise Set
Actual Time
Civil Twilight
Nautical Twilight
Astronomical Twilight
Moon
Length Of Visible Light
Dolžina dneva
Tomorrow will be .
, % of the Moon is Illuminated

Današnji ekstremi

Country Highs Country Lows

Community

WunderPhotos

Upload Photos

1,891,748 photos uploaded!

WunderBlog® & News

Nearby

Air Quality

  Air Quality AQ Index Pollutant
Not available.

Snow Depth

Station Depth Višina

Earthquake Activity

City Distance Mag. Time & Date
Minimum magnitude displayed is 2.5.

Coastal Water Temperatures

Mesto Temperatura

Stations

Nearby Weather Stations

Station Location Temp Občutek zaradi vetra Rosišče Vlažnost Veter Precip. Viš Obnovljeno Type